Time;durP1;ratioP1;P1;durP2;ratioP2;P2;SDS_P1;SDS_P2;PMS_P1;PMS_P2;Temp;Humidity;BMP_temperature;BMP_pressure;BME280_temperature;BME280_humidity;BME280_pressure;Samples;Min_cycle;Max_cycle;Signal;HPM_P1;HPM_P2
2022/04/23 00:01:35;;;;;;;2.30;1.95;;;;;;;10.83;53.75;92501.38;5103533;28;20465;-37
2022/04/23 00:04:00;;;;;;;4.40;2.40;;;;;;;10.77;54.83;92511.94;5092372;28;20024;-37
2022/04/23 00:06:26;;;;;;;6.68;2.83;;;;;;;10.77;55.18;92509.19;5091807;28;20024;-38
2022/04/23 00:08:51;;;;;;;4.18;2.05;;;;;;;10.76;55.09;92511.22;5091773;28;20707;-38
2022/04/23 00:11:17;;;;;;;2.92;2.15;;;;;;;10.80;55.53;92519.09;5092210;28;20459;-38
2022/04/23 00:13:42;;;;;;;6.05;3.25;;;;;;;10.50;56.54;92514.69;5102354;28;20489;-37
2022/04/23 00:16:08;;;;;;;10.20;4.22;;;;;;;10.35;56.79;92520.41;5112634;28;20055;-37
2022/04/23 00:18:34;;;;;;;6.35;4.25;;;;;;;10.35;58.53;92515.59;5098219;28;20028;-37
2022/04/23 00:20:59;;;;;;;6.55;4.03;;;;;;;10.20;57.08;92512.28;5092310;28;20024;-37
2022/04/23 00:23:27;;;;;;;8.05;3.65;;;;;;;10.26;56.64;92521.78;5091980;28;20547;-37
2022/04/23 00:25:54;;;;;;;5.47;3.58;;;;;;;10.15;57.26;92524.28;5091901;28;20042;-38
2022/04/23 00:28:20;;;;;;;10.23;3.25;;;;;;;10.01;58.54;92534.88;5091955;28;20494;-37
2022/04/23 00:30:45;;;;;;;4.18;2.78;;;;;;;9.95;60.19;92520.59;5091882;28;20027;-37
2022/04/23 00:33:11;;;;;;;7.25;3.58;;;;;;;9.65;59.64;92520.91;5092015;28;20031;-37
2022/04/23 00:35:37;;;;;;;4.68;3.00;;;;;;;9.62;61.30;92520.00;5092082;28;20056;-36
2022/04/23 00:38:07;;;;;;;6.70;2.88;;;;;;;9.52;61.31;92516.44;5098380;28;20055;-37
2022/04/23 00:40:33;;;;;;;4.25;2.80;;;;;;;9.54;60.92;92518.59;5091503;28;20649;-37
2022/04/23 00:42:58;;;;;;;8.45;4.07;;;;;;;9.40;61.86;92517.47;5091936;28;20031;-37
2022/04/23 00:45:27;;;;;;;9.95;4.97;;;;;;;9.48;62.64;92531.91;5091522;28;20020;-37
2022/04/23 00:47:53;;;;;;;10.30;6.15;;;;;;;9.61;61.12;92528.84;5091494;28;20027;-37
2022/04/23 00:50:21;;;;;;;9.88;5.57;;;;;;;9.54;60.25;92533.13;5091524;28;20488;-37
2022/04/23 00:52:48;;;;;;;13.85;5.80;;;;;;;9.59;59.94;92540.44;5091406;28;20024;-37
2022/04/23 00:55:14;;;;;;;14.23;6.85;;;;;;;9.49;61.26;92536.09;5096790;28;20027;-37
2022/04/23 00:57:40;;;;;;;7.88;5.50;;;;;;;9.43;62.30;92533.59;5110889;28;20026;-38
2022/04/23 01:00:08;;;;;;;8.05;4.10;;;;;;;9.48;61.75;92537.41;5111859;28;20023;-38
2022/04/23 01:02:35;;;;;;;5.28;2.55;;;;;;;9.46;59.77;92535.22;5111502;28;20020;-38
2022/04/23 01:05:01;;;;;;;5.57;3.70;;;;;;;9.43;60.27;92530.09;5111765;28;20080;-37
2022/04/23 01:07:26;;;;;;;5.18;3.67;;;;;;;9.30;61.30;92527.63;5111509;28;20102;-37
2022/04/23 01:09:52;;;;;;;4.95;2.97;;;;;;;9.21;62.51;92533.75;5111742;28;20034;-38
2022/04/23 01:12:19;;;;;;;5.80;3.50;;;;;;;8.92;63.04;92536.16;5110262;28;20510;-38
2022/04/23 01:15:01;;;;;;;6.65;3.42;;;;;;;8.90;63.79;92542.19;5091589;28;20541;-37
2022/04/23 01:17:26;;;;;;;6.78;4.40;;;;;;;8.70;64.14;92526.75;5091227;28;20521;-38
2022/04/23 01:19:52;;;;;;;6.85;5.40;;;;;;;8.71;64.26;92561.22;5091278;28;20058;-38
2022/04/23 01:22:18;;;;;;;6.75;4.65;;;;;;;8.57;64.57;92549.00;5090364;28;20024;-37
2022/04/23 01:24:43;;;;;;;10.88;5.95;;;;;;;8.60;64.02;92547.16;5091085;28;20024;-37
2022/04/23 01:27:10;;;;;;;7.40;4.88;;;;;;;8.47;64.25;92548.13;5091063;28;20505;-37
2022/04/23 01:29:38;;;;;;;7.30;4.85;;;;;;;8.52;64.16;92546.44;5090761;28;20051;-37
2022/04/23 01:32:05;;;;;;;8.18;4.80;;;;;;;8.58;64.33;92544.22;5091046;28;20134;-37
2022/04/23 01:34:31;;;;;;;7.88;4.25;;;;;;;8.47;64.52;92542.63;5090908;28;20034;-37
2022/04/23 01:36:57;;;;;;;7.55;4.47;;;;;;;8.34;64.86;92548.34;5090547;28;20425;-37
2022/04/23 01:39:22;;;;;;;8.18;4.82;;;;;;;8.33;65.65;92538.66;5090576;28;20024;-37
2022/04/23 01:41:47;;;;;;;10.98;5.60;;;;;;;8.30;65.84;92548.00;5090824;28;20020;-37
2022/04/23 01:44:14;;;;;;;9.02;5.50;;;;;;;8.09;66.29;92542.00;5090581;28;20386;-37
2022/04/23 01:46:39;;;;;;;15.82;9.63;;;;;;;7.93;66.02;92557.81;5090509;28;20054;-38
2022/04/23 01:49:04;;;;;;;15.38;8.15;;;;;;;8.13;65.85;92554.09;5090734;28;20097;-37
2022/04/23 01:51:30;;;;;;;7.22;5.70;;;;;;;8.13;65.61;92539.59;5096027;28;20012;-37
2022/04/23 01:53:55;;;;;;;7.35;4.05;;;;;;;7.98;66.48;92539.66;5109443;28;20527;-37
2022/04/23 01:56:21;;;;;;;4.03;2.60;;;;;;;8.05;66.07;92538.91;5110838;28;20024;-37
2022/04/23 01:58:46;;;;;;;9.20;3.28;;;;;;;8.02;66.75;92531.75;5110906;28;20027;-37
2022/04/23 02:01:12;;;;;;;7.15;4.90;;;;;;;7.89;67.10;92543.69;5110626;28;20024;-38
2022/04/23 02:03:37;;;;;;;7.57;3.92;;;;;;;7.75;65.96;92558.22;5110630;28;20085;-37
2022/04/23 02:06:02;;;;;;;5.90;4.45;;;;;;;7.59;67.01;92563.72;5110915;28;20073;-37
2022/04/23 02:08:28;;;;;;;6.22;3.38;;;;;;;7.67;66.21;92557.50;5110865;28;20034;-37
2022/04/23 02:10:54;;;;;;;7.75;2.90;;;;;;;7.50;67.24;92563.53;5110784;28;20519;-37
2022/04/23 02:13:20;;;;;;;4.80;3.05;;;;;;;7.45;68.19;92556.94;5103303;28;20062;-39
2022/04/23 02:15:45;;;;;;;4.38;3.03;;;;;;;7.34;67.70;92531.88;5090036;28;20044;-40
2022/04/23 02:18:11;;;;;;;6.40;3.97;;;;;;;7.55;68.29;92557.88;5090416;28;20017;-40
2022/04/23 02:20:37;;;;;;;7.00;3.40;;;;;;;7.55;67.77;92554.38;5090045;28;20028;-39
2022/04/23 02:23:03;;;;;;;6.82;3.25;;;;;;;7.53;68.11;92567.94;5090066;28;20024;-40
2022/04/23 02:25:29;;;;;;;4.60;3.08;;;;;;;7.37;68.63;92574.69;5090053;28;20024;-40
2022/04/23 02:27:54;;;;;;;6.47;3.25;;;;;;;7.23;69.22;92576.91;5089634;28;20505;-40
2022/04/23 02:30:21;;;;;;;4.65;3.95;;;;;;;7.30;68.56;92567.94;5089963;28;20099;-40
2022/04/23 02:32:47;;;;;;;7.28;4.80;;;;;;;7.29;68.53;92566.47;5090338;28;20518;-40
2022/04/23 02:35:17;;;;;;;10.38;4.53;;;;;;;7.22;69.35;92561.72;5094346;28;20058;-40
2022/04/23 02:37:44;;;;;;;8.27;5.05;;;;;;;7.18;69.14;92560.59;5094182;28;20106;-38
2022/04/23 02:40:10;;;;;;;8.40;4.65;;;;;;;7.23;69.89;92557.69;5094170;28;20053;-38
2022/04/23 02:42:37;;;;;;;7.93;4.43;;;;;;;6.99;70.01;92546.50;5093711;28;20028;-37
2022/04/23 02:45:07;;;;;;;9.23;4.30;;;;;;;7.14;69.67;92569.22;5093947;28;20024;-38
2022/04/23 02:47:55;;;;;;;10.50;5.55;;;;;;;7.06;71.10;92562.97;5094038;28;20027;-38
2022/04/23 02:50:29;;;;;;;8.88;5.53;;;;;;;7.10;70.52;92568.09;5094232;28;20050;-38
2022/04/23 02:52:56;;;;;;;21.88;7.78;;;;;;;7.14;70.13;92560.97;5093744;28;20039;-38
2022/04/23 02:55:22;;;;;;;10.50;5.60;;;;;;;7.34;68.82;92576.53;5094039;28;20028;-38
2022/04/23 02:57:48;;;;;;;9.75;5.97;;;;;;;7.32;68.63;92570.84;5093569;28;20295;-37
2022/04/23 03:00:13;;;;;;;6.93;5.53;;;;;;;7.31;69.13;92566.66;5093928;28;20020;-37
2022/04/23 03:02:39;;;;;;;8.70;6.13;;;;;;;7.10;69.73;92568.09;5093547;28;20512;-37
2022/04/23 03:05:11;;;;;;;14.18;6.40;;;;;;;6.82;70.92;92566.94;5093768;28;20020;-37
2022/04/23 03:07:38;;;;;;;11.60;6.50;;;;;;;6.51;72.26;92572.91;5097552;28;20401;-37
2022/04/23 03:10:08;;;;;;;8.05;5.25;;;;;;;6.42;72.09;92573.44;5113809;28;20485;-38
2022/04/23 03:12:35;;;;;;;14.88;6.13;;;;;;;6.57;71.96;92568.00;5113250;28;20042;-37
2022/04/23 03:15:01;;;;;;;10.57;5.20;;;;;;;6.59;72.07;92570.91;5092914;28;20055;-38
2022/04/23 03:17:26;;;;;;;12.25;4.53;;;;;;;6.52;72.15;92563.41;5093228;28;20020;-38
2022/04/23 03:19:53;;;;;;;9.38;5.45;;;;;;;6.58;72.55;92566.72;5093584;28;20102;-38
2022/04/23 03:22:20;;;;;;;7.32;5.20;;;;;;;6.70;71.44;92560.34;5093094;28;20024;-38
2022/04/23 03:24:46;;;;;;;8.98;5.80;;;;;;;6.66;71.43;92557.25;5093381;28;20154;-38
2022/04/23 03:27:12;;;;;;;17.98;6.38;;;;;;;6.75;71.59;92556.72;5093409;28;20520;-38
2022/04/23 03:29:37;;;;;;;8.15;5.70;;;;;;;6.81;70.77;92554.53;5093185;28;20178;-36
2022/04/23 03:32:03;;;;;;;12.07;6.22;;;;;;;6.77;71.09;92564.41;5093076;28;20023;-36
2022/04/23 03:34:28;;;;;;;10.57;6.22;;;;;;;6.74;71.98;92566.22;5093162;28;20024;-36
2022/04/23 03:36:54;;;;;;;16.83;5.60;;;;;;;6.81;71.09;92568.25;5093289;28;20020;-36
2022/04/23 03:39:20;;;;;;;7.82;5.80;;;;;;;6.59;71.40;92557.94;5092803;28;20408;-36
2022/04/23 03:41:45;;;;;;;10.00;7.18;;;;;;;6.68;71.61;92557.44;5093156;28;20099;-36
2022/04/23 03:44:11;;;;;;;8.77;5.93;;;;;;;6.45;72.83;92564.88;5100120;28;20573;-36
2022/04/23 03:46:36;;;;;;;12.73;6.30;;;;;;;6.72;73.11;92565.28;5112823;28;20016;-36
2022/04/23 03:49:02;;;;;;;26.00;10.88;;;;;;;6.82;72.61;92566.25;5113135;28;20065;-36
2022/04/23 03:51:27;;;;;;;21.90;13.23;;;;;;;6.76;71.56;92565.66;5113032;28;20031;-36
2022/04/23 03:53:53;;;;;;;18.50;10.48;;;;;;;6.74;71.65;92571.69;5113031;28;20027;-36
2022/04/23 03:56:18;;;;;;;12.00;7.65;;;;;;;6.81;71.49;92573.00;5112971;28;20024;-36
2022/04/23 03:58:44;;;;;;;8.38;6.43;;;;;;;6.73;71.75;92564.03;5113099;28;20055;-36
2022/04/23 04:01:10;;;;;;;10.10;6.32;;;;;;;6.79;71.56;92567.31;5112498;28;20019;-36
2022/04/23 04:03:35;;;;;;;6.63;4.85;;;;;;;6.79;71.26;92561.84;5113002;28;20496;-36
2022/04/23 04:06:01;;;;;;;9.20;5.93;;;;;;;6.77;71.73;92565.13;5113116;27;20027;-36
2022/04/23 04:08:26;;;;;;;7.22;5.45;;;;;;;6.92;71.42;92578.16;5112933;28;20028;-36
2022/04/23 04:10:52;;;;;;;7.93;5.20;;;;;;;7.04;71.67;92573.75;5113035;28;20239;-37
2022/04/23 04:13:18;;;;;;;9.85;6.03;;;;;;;7.18;71.05;92580.56;5105631;27;20032;-37
2022/04/23 04:15:44;;;;;;;8.32;6.03;;;;;;;7.35;70.28;92583.50;5092119;28;20055;-37
2022/04/23 04:18:11;;;;;;;14.25;7.32;;;;;;;7.44;70.18;92582.97;5092434;28;20024;-37
2022/04/23 04:20:37;;;;;;;10.77;6.90;;;;;;;7.46;69.81;92594.13;5102248;28;20055;-37
2022/04/23 04:23:02;;;;;;;9.15;6.15;;;;;;;7.48;69.79;92583.31;5112772;28;20121;-38
2022/04/23 04:25:28;;;;;;;13.57;6.47;;;;;;;7.62;70.61;92581.13;5112360;28;20023;-38
2022/04/23 04:27:54;;;;;;;12.02;6.97;;;;;;;7.72;70.76;92578.53;5112651;28;20020;-37
2022/04/23 04:30:19;;;;;;;11.02;7.30;;;;;;;7.74;70.84;92586.97;5112630;28;20485;-37
2022/04/23 04:32:45;;;;;;;22.65;13.70;;;;;;;7.83;71.15;92597.38;5112211;28;20023;-37
2022/04/23 04:35:11;;;;;;;23.23;14.07;;;;;;;8.00;70.04;92590.03;5112144;28;20028;-37
2022/04/23 04:37:37;;;;;;;34.90;20.08;;;;;;;8.04;68.91;92578.66;5112122;28;20019;-38
2022/04/23 04:40:03;;;;;;;43.50;24.65;;;;;;;8.21;68.31;92581.53;5108130;28;20020;-38
2022/04/23 04:42:29;;;;;;;37.80;20.60;;;;;;;8.50;68.45;92591.03;5091512;28;20060;-38
2022/04/23 04:44:55;;;;;;;30.13;20.10;;;;;;;8.64;67.73;92586.75;5091969;28;20019;-38
2022/04/23 04:47:20;;;;;;;24.10;15.93;;;;;;;8.62;66.70;92592.06;5091523;28;20088;-38
2022/04/23 04:49:45;;;;;;;31.33;18.48;;;;;;;8.75;66.36;92605.59;5091428;28;20107;-38
2022/04/23 04:52:11;;;;;;;31.75;22.17;;;;;;;9.00;65.85;92608.41;5091379;28;20020;-38
2022/04/23 04:54:37;;;;;;;49.35;27.05;;;;;;;8.89;64.78;92595.81;5091625;28;20032;-38
2022/04/23 04:57:02;;;;;;;36.65;25.08;;;;;;;8.88;66.22;92597.09;5105741;28;20513;-38
2022/04/23 04:59:31;;;;;;;35.42;22.08;;;;;;;9.04;66.56;92609.50;5111615;28;20023;-38
2022/04/23 05:01:57;;;;;;;43.47;27.52;;;;;;;9.14;66.36;92610.34;5105108;28;20020;-38
2022/04/23 05:04:22;;;;;;;30.70;19.58;;;;;;;8.86;65.83;92610.69;5099030;28;20024;-37
2022/04/23 05:06:48;;;;;;;32.50;17.50;;;;;;;8.82;66.88;92613.09;5091259;28;20027;-37
2022/04/23 05:09:14;;;;;;;30.25;20.17;;;;;;;8.95;67.76;92610.09;5091149;28;20031;-37
2022/04/23 05:11:39;;;;;;;27.95;16.80;;;;;;;9.02;66.98;92614.09;5091054;28;20027;-38
2022/04/23 05:14:05;;;;;;;46.75;24.83;;;;;;;9.13;66.78;92616.44;5101593;28;20035;-40
2022/04/23 05:16:30;;;;;;;28.05;17.75;;;;;;;9.13;67.21;92625.44;5111134;28;20044;-40
2022/04/23 05:18:56;;;;;;;28.92;19.75;;;;;;;9.28;67.81;92632.13;5111610;28;20028;-39
2022/04/23 05:21:21;;;;;;;29.58;19.35;;;;;;;9.44;66.57;92630.75;5111297;28;20058;-39
2022/04/23 05:23:47;;;;;;;35.83;22.98;;;;;;;9.52;66.35;92634.91;5111474;28;20031;-39
2022/04/23 05:26:12;;;;;;;34.55;25.00;;;;;;;9.69;66.91;92637.72;5111210;28;20023;-38
2022/04/23 05:28:39;;;;;;;33.13;20.10;;;;;;;9.79;66.64;92646.84;5111391;28;20028;-39
2022/04/23 05:31:05;;;;;;;17.77;13.15;;;;;;;9.87;65.80;92655.78;5111464;27;20469;-38
2022/04/23 05:33:31;;;;;;;52.53;27.10;;;;;;;9.94;66.21;92646.72;5111174;28;20103;-39
2022/04/23 05:35:57;;;;;;;23.70;13.98;;;;;;;9.86;66.06;92648.06;5110918;28;20501;-39
2022/04/23 05:38:23;;;;;;;7.72;6.68;;;;;;;9.60;65.85;92646.59;5111058;28;20516;-37
2022/04/23 05:40:49;;;;;;;12.45;7.13;;;;;;;9.72;66.04;92650.38;5110735;28;20104;-37
2022/04/23 05:43:16;;;;;;;7.70;4.30;;;;;;;9.76;66.50;92652.75;5110978;28;20492;-38
2022/04/23 05:45:43;;;;;;;32.10;12.80;;;;;;;9.63;66.40;92651.00;5110931;28;20076;-38
2022/04/23 05:48:09;;;;;;;48.88;23.60;;;;;;;9.93;66.51;92648.03;5110782;28;20176;-38
2022/04/23 05:50:35;;;;;;;21.55;11.98;;;;;;;10.11;67.03;92657.09;5095448;28;20549;-38
2022/04/23 05:53:01;;;;;;;15.50;9.88;;;;;;;10.23;66.23;92643.56;5090482;28;20091;-38
2022/04/23 05:55:27;;;;;;;14.50;9.23;;;;;;;10.55;66.21;92657.94;5090413;28;20036;-38
2022/04/23 05:57:52;;;;;;;44.72;26.00;;;;;;;10.76;65.81;92665.09;5090208;28;20029;-39
2022/04/23 06:00:19;;;;;;;50.70;17.40;;;;;;;10.95;65.63;92676.31;5090628;28;20028;-39
2022/04/23 06:02:44;;;;;;;19.10;11.52;;;;;;;11.02;65.43;92676.19;5109821;28;20414;-38
2022/04/23 06:05:13;;;;;;;11.07;6.82;;;;;;;11.14;64.01;92679.19;5110830;28;20030;-38
2022/04/23 06:07:39;;;;;;;10.32;6.45;;;;;;;11.27;61.24;92679.59;5110095;28;20019;-38
2022/04/23 06:10:05;;;;;;;12.23;7.03;;;;;;;11.24;61.33;92686.25;5110872;28;20089;-38
2022/04/23 06:12:31;;;;;;;11.80;7.00;;;;;;;11.41;61.20;92683.44;5110359;28;20102;-38
2022/04/23 06:14:57;;;;;;;8.93;5.57;;;;;;;11.39;61.26;92677.06;5110035;28;20048;-38
2022/04/23 06:17:26;;;;;;;10.35;7.22;;;;;;;11.57;61.40;92688.78;5110613;28;20076;-38
2022/04/23 06:19:52;;;;;;;10.25;8.27;;;;;;;11.51;62.15;92680.03;5109744;28;20022;-38
2022/04/23 06:22:22;;;;;;;23.77;11.32;;;;;;;11.79;62.94;92685.00;5110638;28;20408;-38
2022/04/23 06:24:48;;;;;;;15.13;9.02;;;;;;;12.03;60.92;92686.84;5110394;28;20055;-39
2022/04/23 06:27:13;;;;;;;22.88;9.75;;;;;;;12.15;61.93;92685.72;5110682;28;20047;-38
2022/04/23 06:29:39;;;;;;;24.80;11.60;;;;;;;12.43;62.85;92680.88;5110661;28;20100;-38
2022/04/23 06:32:05;;;;;;;49.90;34.33;;;;;;;12.57;59.75;92682.66;5110391;28;20102;-38
2022/04/23 06:34:31;;;;;;;58.63;43.08;;;;;;;12.83;58.97;92684.59;5089977;28;20105;-40
2022/04/23 06:36:56;;;;;;;59.17;37.00;;;;;;;13.12;58.42;92695.72;5089949;28;20031;-40
2022/04/23 06:39:22;;;;;;;50.25;35.20;;;;;;;13.50;57.13;92689.41;5090234;28;20031;-40
2022/04/23 06:41:47;;;;;;;48.85;31.08;;;;;;;13.55;55.43;92683.56;5090105;28;20757;-39
2022/04/23 06:44:14;;;;;;;45.78;29.95;;;;;;;13.65;56.49;92687.03;5090180;28;20046;-39
2022/04/23 06:46:40;;;;;;;41.00;22.63;;;;;;;14.81;55.19;92679.69;5102865;28;20114;-38
2022/04/23 06:49:06;;;;;;;27.60;19.05;;;;;;;17.00;49.97;92684.31;5110504;28;20100;-39
2022/04/23 06:51:33;;;;;;;19.75;14.63;;;;;;;19.00;44.60;92668.00;5110225;28;20554;-38
2022/04/23 06:53:59;;;;;;;16.52;10.18;;;;;;;19.55;41.98;92663.81;5110112;28;20024;-38
2022/04/23 06:56:26;;;;;;;11.15;6.40;;;;;;;20.19;38.25;92660.50;5109278;28;20024;-38
2022/04/23 06:58:51;;;;;;;3.92;2.38;;;;;;;20.24;35.86;92662.19;5107889;28;20116;-39
2022/04/23 07:01:18;;;;;;;13.18;4.25;;;;;;;20.35;36.78;92666.16;5104897;28;20496;-38
2022/04/23 07:03:43;;;;;;;16.25;8.70;;;;;;;20.28;36.89;92656.03;5107659;28;20099;-39
2022/04/23 07:06:09;;;;;;;10.73;5.00;;;;;;;20.05;38.30;92667.53;5107655;28;20094;-38
2022/04/23 07:08:34;;;;;;;8.98;4.43;;;;;;;20.59;36.00;92658.13;5107646;28;20516;-38
2022/04/23 07:11:00;;;;;;;11.05;4.57;;;;;;;21.76;35.66;92653.31;5107881;28;20031;-38
2022/04/23 07:13:25;;;;;;;12.35;4.53;;;;;;;22.78;34.87;92660.78;5102986;28;20019;-37
2022/04/23 07:15:51;;;;;;;7.75;2.88;;;;;;;24.27;33.17;92660.94;5096999;28;20047;-37
2022/04/23 07:18:16;;;;;;;7.03;2.13;;;;;;;25.46;27.85;92667.97;5107568;28;20039;-37
2022/04/23 07:20:42;;;;;;;10.18;2.40;;;;;;;26.25;26.51;92664.28;5109311;28;20072;-36
2022/04/23 07:25:54;;;;;;;12.13;5.25;;;;;;;28.27;25.78;92672.63;5111336;28;20080;-37
2022/04/23 07:28:22;;;;;;;7.45;2.40;;;;;;;28.28;23.52;92662.72;5111187;28;20032;-36
2022/04/23 07:30:48;;;;;;;8.40;1.95;;;;;;;27.84;24.30;92673.28;5090551;28;20111;-37
2022/04/23 07:37:28;;;;;;;9.63;6.20;;;;;;;28.36;24.21;92662.13;5089961;28;20085;-37
2022/04/23 07:38:43;;;;;;;6.70;2.33;;;;;;;30.10;21.36;92670.75;5089718;28;20089;-37
2022/04/23 07:41:09;;;;;;;4.07;2.10;;;;;;;30.55;22.09;92681.13;5096304;28;20732;-39
2022/04/23 07:43:34;;;;;;;6.18;3.25;;;;;;;30.89;21.31;92669.97;5109970;28;20108;-38
2022/04/23 07:46:00;;;;;;;3.53;2.35;;;;;;;31.83;20.57;92681.13;5110063;28;20063;-37
2022/04/23 07:48:25;;;;;;;7.57;2.50;;;;;;;32.24;21.92;92679.09;5101479;28;20030;-37
2022/04/23 07:50:51;;;;;;;5.68;1.90;;;;;;;31.94;18.63;92685.47;5101050;28;20424;-37
2022/04/23 07:53:16;;;;;;;5.07;1.77;;;;;;;31.70;20.20;92687.50;5110693;28;20112;-38
2022/04/23 07:55:42;;;;;;;8.45;2.60;;;;;;;31.93;19.73;92680.41;5110664;28;20030;-38
2022/04/23 07:58:09;;;;;;;8.50;2.35;;;;;;;31.48;20.77;92682.44;5104114;28;20027;-38
2022/04/23 08:00:36;;;;;;;6.20;1.88;;;;;;;32.54;19.55;92689.84;5107656;28;20539;-38
2022/04/23 08:03:05;;;;;;;5.60;2.38;;;;;;;31.71;20.92;92683.22;5109653;28;20496;-38
2022/04/23 08:05:33;;;;;;;5.28;2.63;;;;;;;30.93;21.40;92689.97;5109798;28;20028;-38
2022/04/23 08:07:59;;;;;;;8.50;3.85;;;;;;;30.74;22.00;92688.38;5103524;28;20028;-40
2022/04/23 08:10:25;;;;;;;21.27;3.70;;;;;;;31.04;23.30;92697.16;5096397;28;20088;-37
2022/04/23 08:12:50;;;;;;;6.40;2.33;;;;;;;30.80;22.71;92696.97;5109453;28;20020;-37
2022/04/23 08:15:16;;;;;;;7.65;2.95;;;;;;;31.00;22.81;92710.66;5109658;28;20486;-38
2022/04/23 08:17:41;;;;;;;5.25;1.95;;;;;;;31.50;21.22;92701.69;5110339;28;20032;-37
2022/04/23 08:20:08;;;;;;;6.95;3.47;;;;;;;32.06;21.08;92704.75;5109256;28;20088;-37
2022/04/23 08:22:34;;;;;;;11.45;6.82;;;;;;;32.08;20.01;92699.03;5110116;28;20023;-37
2022/04/23 08:25:00;;;;;;;9.18;3.72;;;;;;;32.06;20.83;92681.91;5110734;28;20027;-37
2022/04/23 08:27:26;;;;;;;3.33;2.33;;;;;;;32.25;19.56;92703.34;5110917;28;20022;-37
2022/04/23 08:32:36;;;;;;;6.10;2.00;;;;;;;31.48;19.86;92702.41;5109929;28;20111;-37
2022/04/23 08:35:02;;;;;;;3.25;1.92;;;;;;;31.77;21.05;92708.94;5108867;28;20023;-37
2022/04/23 08:37:28;;;;;;;11.88;2.63;;;;;;;32.06;20.29;92699.03;5108262;28;20028;-38
2022/04/23 08:39:53;;;;;;;14.73;3.33;;;;;;;32.20;21.17;92699.06;5108164;28;20571;-37
2022/04/23 08:42:19;;;;;;;7.65;2.42;;;;;;;31.99;21.01;92694.72;5109520;27;20513;-37
2022/04/23 08:44:45;;;;;;;15.60;3.15;;;;;;;31.79;22.66;92686.81;5109402;28;20025;-37
2022/04/23 08:47:11;;;;;;;7.43;2.78;;;;;;;32.14;20.65;92691.19;5110514;27;20023;-38
2022/04/23 08:49:40;;;;;;;7.43;2.88;;;;;;;31.79;20.94;92691.81;5111767;28;20054;-37
2022/04/23 08:52:26;;;;;;;7.65;2.88;;;;;;;32.28;20.96;92695.50;5112114;28;20023;-38
2022/04/23 08:54:52;;;;;;;7.82;2.65;;;;;;;32.70;20.05;92698.41;5111878;28;20020;-37
2022/04/23 08:57:18;;;;;;;8.05;3.45;;;;;;;32.97;19.54;92690.50;5111750;28;20028;-37
2022/04/23 08:59:45;;;;;;;11.63;3.08;;;;;;;32.99;19.60;92694.09;5112092;28;20023;-38
2022/04/23 09:02:13;;;;;;;7.97;2.33;;;;;;;32.81;19.26;92680.53;5111860;28;20385;-37
2022/04/23 09:04:40;;;;;;;;;;;;;;;32.24;21.33;92681.22;5112014;28;20523;-37
2022/04/23 09:07:17;;;;;;;11.00;3.03;;;;;;;31.63;23.28;92674.63;5111675;28;19907;-37
2022/04/23 09:09:50;;;;;;;8.40;2.95;;;;;;;31.14;22.50;92682.97;5111675;28;20099;-37
2022/04/23 09:12:17;;;;;;;9.48;2.83;;;;;;;32.00;21.40;92676.19;5111704;28;20024;-37
2022/04/23 09:14:44;;;;;;;8.00;3.00;;;;;;;32.27;21.13;92671.94;5110709;28;20020;-37
2022/04/23 09:25:30;;;;;;;7.15;2.40;;;;;;;29.40;22.75;92674.25;5104617;28;20077;-38
2022/04/23 09:27:56;;;;;;;10.63;3.08;;;;;;;30.68;23.23;92668.41;5091029;28;20028;-37
2022/04/23 09:30:22;;;;;;;7.65;2.90;;;;;;;31.15;22.18;92672.97;5072749;28;20447;-37
2022/04/23 09:32:58;;;;;;;9.63;2.45;;;;;;;31.69;19.97;92677.50;5089660;28;20107;-38
2022/04/23 09:35:24;;;;;;;6.25;2.33;;;;;;;31.13;20.38;92680.81;5090756;28;20513;-38
2022/04/23 09:40:33;;;;;;;6.80;3.42;;;;;;;28.84;24.64;92684.88;5090851;28;20092;-37
2022/04/23 09:43:06;;;;;;;9.10;3.90;;;;;;;28.25;26.18;92683.97;5090007;28;20667;-38
2022/04/23 09:45:32;;;;;;;7.95;3.13;;;;;;;28.73;25.15;92671.94;5090587;28;20568;-36
2022/04/23 09:48:18;;;;;;;8.57;3.22;;;;;;;28.20;26.31;92671.09;5090820;28;20028;-38
2022/04/23 09:50:48;;;;;;;7.72;2.53;;;;;;;27.79;25.87;92671.78;5090254;28;20042;-37
2022/04/23 09:53:20;;;;;;;7.00;3.20;;;;;;;27.98;27.17;92679.22;5090406;28;20032;-37
2022/04/23 09:55:48;;;;;;;3.47;2.05;;;;;;;29.34;25.95;92670.63;5090726;28;20420;-37
2022/04/23 09:58:16;;;;;;;10.27;3.13;;;;;;;28.87;24.56;92666.47;5090755;28;20417;-37
2022/04/23 10:00:44;;;;;;;7.35;3.05;;;;;;;28.33;26.56;92672.72;5090477;28;20123;-37
2022/04/23 10:03:14;;;;;;;9.80;3.35;;;;;;;27.54;27.85;92675.59;5090363;28;20441;-37
2022/04/23 10:05:51;;;;;;;9.25;5.00;;;;;;;27.03;28.55;92685.16;5072169;28;20127;-37
2022/04/23 10:08:29;;;;;;;12.05;3.08;;;;;;;26.19;28.84;92683.94;5088270;28;20089;-37
2022/04/23 10:11:08;;;;;;;6.80;2.80;;;;;;;25.55;29.32;92672.41;5090378;28;20081;-37
2022/04/23 10:13:38;;;;;;;6.55;3.22;;;;;;;25.26;30.48;92661.00;5099151;28;20405;-39
2022/04/23 10:16:04;;;;;;;9.38;3.10;;;;;;;26.18;30.33;92679.69;5092547;28;20128;-39
2022/04/23 10:18:31;;;;;;;13.00;3.13;;;;;;;27.22;29.07;92674.94;5109262;28;20058;-40
2022/04/23 10:21:02;;;;;;;8.82;3.28;;;;;;;27.26;28.31;92680.69;5108247;28;20449;-38
2022/04/23 10:23:44;;;;;;;11.35;3.20;;;;;;;26.75;28.58;92687.38;5090185;28;20036;-37
2022/04/23 10:26:34;;;;;;;8.27;4.00;;;;;;;25.99;28.73;92686.28;5090400;28;20038;-38
2022/04/23 10:29:02;;;;;;;9.43;3.15;;;;;;;25.56;29.67;92690.09;5090025;28;20016;-40
2022/04/23 10:31:27;;;;;;;11.25;5.30;;;;;;;25.24;29.07;92689.94;5090088;28;20051;-37
2022/04/23 10:33:53;;;;;;;5.93;3.55;;;;;;;25.22;30.76;92691.97;5088829;28;20044;-39
2022/04/23 10:36:20;;;;;;;12.77;3.83;;;;;;;24.68;31.89;92691.09;5090303;28;20578;-40
2022/04/23 10:38:51;;;;;;;9.35;3.63;;;;;;;23.97;32.16;92691.69;5090116;28;20019;-39
2022/04/23 10:41:18;;;;;;;8.18;3.47;;;;;;;23.87;32.02;92693.44;5089963;28;20031;-40
2022/04/23 10:43:52;;;;;;;33.20;10.80;;;;;;;23.54;32.64;92691.66;5089982;28;20059;-39
2022/04/23 10:46:51;;;;;;;13.50;3.90;;;;;;;23.21;33.28;92694.69;5090194;28;20413;-39
2022/04/23 10:49:23;;;;;;;17.00;4.68;;;;;;;23.04;33.79;92703.94;5077681;28;20493;-39
2022/04/23 10:51:53;;;;;;;23.73;5.75;;;;;;;23.13;33.96;92709.19;5089875;28;20020;-39
2022/04/23 10:54:21;;;;;;;11.45;3.45;;;;;;;22.90;34.14;92711.88;5090115;28;20413;-39
2022/04/23 10:56:53;;;;;;;7.25;3.42;;;;;;;23.02;34.36;92706.69;5093507;28;20031;-40
2022/04/23 10:59:40;;;;;;;10.10;3.38;;;;;;;22.66;34.88;92713.78;5093697;28;20028;-40
2022/04/23 11:02:28;;;;;;;5.35;2.70;;;;;;;23.01;35.86;92711.59;5093925;28;20051;-40
2022/04/23 11:13:27;;;;;;;6.75;2.95;;;;;;;24.07;34.01;92700.50;5100001;28;20076;-39
2022/04/23 11:16:26;;;;;;;8.50;3.10;;;;;;;24.47;31.90;92703.88;5113733;28;20047;-39
2022/04/23 11:18:52;;;;;;;8.70;2.70;;;;;;;24.78;30.58;92700.63;5075642;28;20040;-39
2022/04/23 11:21:28;;;;;;;7.20;2.50;;;;;;;25.19;30.84;92698.94;5093270;28;20035;-39
2022/04/23 11:23:56;;;;;;;8.55;2.30;;;;;;;25.51;31.05;92711.19;5093360;28;20490;-39
2022/04/23 11:26:51;;;;;;;11.75;3.08;;;;;;;25.06;29.69;92695.06;5093090;28;20426;-40
2022/04/23 11:29:21;;;;;;;9.68;3.13;;;;;;;25.27;30.41;92705.56;5093511;28;20048;-40
2022/04/23 11:31:53;;;;;;;7.70;2.25;;;;;;;25.93;30.57;92700.97;5093241;28;20016;-39
2022/04/23 11:34:19;;;;;;;6.18;2.60;;;;;;;26.33;29.64;92689.97;5092947;28;20024;-39
2022/04/23 11:36:45;;;;;;;8.95;2.88;;;;;;;26.18;29.48;92697.38;5093010;28;20073;-39
2022/04/23 11:39:13;;;;;;;10.50;3.67;;;;;;;26.14;29.29;92694.44;5092891;28;20081;-39
2022/04/23 11:41:42;;;;;;;12.55;2.88;;;;;;;26.05;31.41;92689.94;5093128;28;20030;-39
2022/04/23 11:44:14;;;;;;;10.07;2.90;;;;;;;25.89;31.19;92698.03;5093237;28;20417;-40
2022/04/23 11:46:58;;;;;;;8.85;2.78;;;;;;;24.94;29.79;92694.72;5093116;28;20478;-39
2022/04/23 11:49:30;;;;;;;10.43;3.00;;;;;;;24.80;31.49;92699.94;5092375;28;20051;-38
2022/04/23 11:52:14;;;;;;;7.75;3.25;;;;;;;25.12;30.29;92686.75;5092585;28;20090;-40
2022/04/23 11:54:40;;;;;;;11.07;2.20;;;;;;;25.10;29.93;92688.81;5092784;28;20106;-39
2022/04/23 11:57:08;;;;;;;5.55;2.00;;;;;;;25.19;30.17;92682.00;5092624;28;20527;-39
2022/04/23 11:59:41;;;;;;;7.43;2.77;;;;;;;25.07;32.52;92684.50;5092893;28;20107;-39
2022/04/23 12:02:27;;;;;;;8.45;2.13;;;;;;;24.46;29.56;92688.31;5092797;28;20446;-40